createdAt,value
2018-09-09T00:00:48.914Z,101078.00
2018-09-09T00:03:17.470Z,101072.52
2018-09-09T00:05:46.134Z,101010.94
2018-09-09T00:08:14.630Z,101086.56
2018-09-09T00:10:43.197Z,101089.21
2018-09-09T00:13:11.782Z,101083.22
2018-09-09T00:15:40.281Z,101081.60
2018-09-09T00:18:08.754Z,101077.39
2018-09-09T00:20:37.942Z,101082.97
2018-09-09T00:23:07.262Z,101078.88
2018-09-09T00:25:36.270Z,101080.30
2018-09-09T00:28:05.186Z,101085.31
2018-09-09T00:30:33.930Z,101083.27
2018-09-09T00:33:02.403Z,101079.00
2018-09-09T00:35:30.886Z,101081.54
2018-09-09T00:37:59.810Z,101074.77
2018-09-09T00:40:28.362Z,101078.00
2018-09-09T00:42:57.641Z,101058.02
2018-09-09T00:45:26.149Z,101072.08
2018-09-09T00:47:54.754Z,101073.95
2018-09-09T00:50:28.612Z,101067.50
2018-09-09T00:53:02.346Z,101080.01
2018-09-09T00:55:31.362Z,101074.70
2018-09-09T00:57:59.889Z,101083.49
2018-09-09T01:00:33.718Z,101077.36
2018-09-09T01:03:02.304Z,101066.75
2018-09-09T01:05:30.874Z,101075.45
2018-09-09T01:07:59.378Z,101072.05
2018-09-09T01:10:27.978Z,101070.73
2018-09-09T01:12:56.654Z,101071.27
2018-09-09T01:15:25.192Z,101077.36
2018-09-09T01:17:53.810Z,101072.05
2018-09-09T01:20:22.811Z,101065.97
2018-09-09T01:22:51.315Z,101076.41
2018-09-09T01:25:19.849Z,101077.53
2018-09-09T01:27:48.331Z,101074.01
2018-09-09T01:30:16.909Z,101018.44
2018-09-09T01:32:45.414Z,101066.34
2018-09-09T01:35:13.893Z,101064.02
2018-09-09T01:37:42.462Z,101059.45
2018-09-09T01:40:11.133Z,101065.45
2018-09-09T01:42:39.807Z,101066.06
2018-09-09T01:45:08.314Z,101066.63
2018-09-09T01:47:37.793Z,101064.21
2018-09-09T01:50:06.346Z,101056.63
2018-09-09T01:52:34.865Z,101056.63
2018-09-09T01:55:03.486Z,101063.63
2018-09-09T01:57:32.047Z,101060.98
2018-09-09T02:00:00.618Z,101065.36
2018-09-09T02:02:29.230Z,101059.97
2018-09-09T02:04:57.881Z,101064.41
2018-09-09T02:07:26.458Z,101061.58
2018-09-09T02:09:54.968Z,101058.41
2018-09-09T02:12:23.462Z,101052.93
2018-09-09T02:14:52.018Z,101050.47
2018-09-09T02:17:20.598Z,101059.00
2018-09-09T02:19:49.078Z,101048.61
2018-09-09T02:22:17.661Z,101045.20
2018-09-09T02:24:46.252Z,101049.40
2018-09-09T02:27:14.829Z,101043.51
2018-09-09T02:29:43.418Z,101048.55
2018-09-09T02:32:11.902Z,101048.45
2018-09-09T02:34:40.375Z,101043.92
2018-09-09T02:37:08.939Z,101044.70
2018-09-09T02:39:37.519Z,101054.73
2018-09-09T02:42:06.010Z,101058.16
2018-09-09T02:44:34.498Z,101060.27
2018-09-09T02:47:03.344Z,101061.00
2018-09-09T02:49:31.853Z,101055.73
2018-09-09T02:52:00.477Z,101059.81
2018-09-09T02:54:29.017Z,101052.50
2018-09-09T02:56:57.498Z,101056.70
2018-09-09T02:59:26.962Z,101049.88
2018-09-09T03:01:55.494Z,101055.83
2018-09-09T03:04:24.082Z,101059.08
2018-09-09T03:06:53.398Z,101053.11
2018-09-09T03:09:21.962Z,101050.17
2018-09-09T03:11:50.540Z,101053.87
2018-09-09T03:14:19.855Z,101045.12
2018-09-09T03:16:48.535Z,101041.36
2018-09-09T03:19:17.035Z,100997.89
2018-09-09T03:21:45.699Z,101037.08
2018-09-09T03:24:14.278Z,101031.65
2018-09-09T03:26:42.847Z,101036.05
2018-09-09T03:29:11.323Z,101027.88
2018-09-09T03:31:39.859Z,101028.42
2018-09-09T03:34:08.498Z,101029.19
2018-09-09T03:36:36.978Z,101036.20
2018-09-09T03:39:07.889Z,101034.31
2018-09-09T03:41:36.701Z,101032.98
2018-09-09T03:44:05.418Z,101033.75
2018-09-09T03:46:34.124Z,101044.19
2018-09-09T03:49:02.693Z,101041.80
2018-09-09T03:51:31.262Z,101043.41
2018-09-09T03:53:59.818Z,101040.18
2018-09-09T03:56:28.390Z,101040.55
2018-09-09T03:58:56.998Z,101050.98
2018-09-09T04:01:25.592Z,101045.67
2018-09-09T04:03:54.112Z,101042.91
2018-09-09T04:06:22.646Z,101037.50
2018-09-09T04:08:51.267Z,101038.83
2018-09-09T04:11:19.898Z,101038.27
2018-09-09T04:13:48.380Z,101026.19
2018-09-09T04:16:16.982Z,101043.37
2018-09-09T04:18:45.970Z,101040.72
2018-09-09T04:21:14.447Z,101035.20
2018-09-09T04:23:43.076Z,101036.90
2018-09-09T04:26:11.637Z,101042.98
2018-09-09T04:28:40.207Z,101052.09
2018-09-09T04:31:08.790Z,101056.09
2018-09-09T04:33:37.399Z,101048.94
2018-09-09T04:36:06.035Z,101051.13
2018-09-09T04:38:34.500Z,101064.44
2018-09-09T04:41:03.001Z,101060.55
2018-09-09T04:43:31.491Z,101073.75
2018-09-09T04:46:00.090Z,101069.59
2018-09-09T04:48:28.786Z,101056.48
2018-09-09T04:50:57.337Z,101058.58
2018-09-09T04:53:25.910Z,101056.88
2018-09-09T04:55:54.646Z,101049.39
2018-09-09T04:58:23.524Z,101063.72
2018-09-09T05:00:52.686Z,101065.05
2018-09-09T05:03:21.198Z,101068.45
2018-09-09T05:05:50.054Z,101069.78
2018-09-09T05:08:18.673Z,101067.98
2018-09-09T05:10:47.222Z,101069.31
2018-09-09T05:13:15.722Z,101064.86
2018-09-09T05:15:44.527Z,101004.05
2018-09-09T05:18:13.115Z,101063.13
2018-09-09T05:20:41.653Z,101059.54
2018-09-09T05:23:10.270Z,101058.58
2018-09-09T05:25:38.920Z,101059.44
2018-09-09T05:28:07.537Z,101067.88
2018-09-09T05:30:36.158Z,101064.26
2018-09-09T05:33:05.910Z,101070.91
2018-09-09T05:35:34.387Z,101067.42
2018-09-09T05:38:03.268Z,101067.88
2018-09-09T05:40:31.775Z,101068.34
2018-09-09T05:43:00.374Z,101070.08
2018-09-09T05:45:28.974Z,101074.44
2018-09-09T05:47:57.541Z,101080.81
2018-09-09T05:50:26.108Z,101082.52
2018-09-09T05:52:54.670Z,101087.47
2018-09-09T05:55:23.276Z,101088.03
2018-09-09T05:57:52.068Z,101093.34
2018-09-09T06:00:20.530Z,101095.64
2018-09-09T06:02:49.097Z,101094.41
2018-09-09T06:05:17.710Z,101099.62
2018-09-09T06:07:46.290Z,101096.97
2018-09-09T06:10:14.766Z,101095.24
2018-09-09T06:12:43.337Z,101101.42
2018-09-09T06:15:11.975Z,101101.52
2018-09-09T06:17:40.593Z,101103.51
2018-09-09T06:20:09.176Z,101098.28
2018-09-09T06:22:37.674Z,101098.19
2018-09-09T06:25:06.382Z,101093.73
2018-09-09T06:27:35.027Z,101093.73
2018-09-09T06:30:03.713Z,101097.90
2018-09-09T06:32:32.954Z,101095.64
2018-09-09T06:35:02.346Z,101087.86
2018-09-09T06:37:31.424Z,101090.88
2018-09-09T06:39:59.934Z,101088.22
2018-09-09T06:42:28.551Z,101093.55
2018-09-09T06:44:57.155Z,101099.83
2018-09-09T06:47:25.756Z,101093.55
2018-09-09T06:49:54.424Z,101090.88
2018-09-09T06:52:22.921Z,101090.78
2018-09-09T06:54:51.508Z,101090.69
2018-09-09T06:57:20.172Z,101091.45
2018-09-09T06:59:48.651Z,101089.53
2018-09-09T07:02:17.226Z,101087.73
2018-09-09T07:04:45.731Z,101093.12
2018-09-09T07:07:14.302Z,101091.80
2018-09-09T07:09:42.799Z,101084.95
2018-09-09T07:12:11.407Z,101078.13
2018-09-09T07:14:39.962Z,101082.86
2018-09-09T07:17:08.895Z,101081.90
2018-09-09T07:19:37.466Z,101079.54
2018-09-09T07:22:05.966Z,101083.97
2018-09-09T07:24:34.583Z,101086.06
2018-09-09T07:27:03.095Z,101084.63
2018-09-09T07:29:31.683Z,101083.94
2018-09-09T07:32:00.230Z,101074.52
2018-09-09T07:34:28.822Z,101077.68
2018-09-09T07:36:57.418Z,101066.84
2018-09-09T07:39:25.998Z,101088.86
2018-09-09T07:41:54.618Z,101088.49
2018-09-09T07:44:23.247Z,101086.80
2018-09-09T07:46:51.772Z,101094.02
2018-09-09T07:49:20.294Z,101099.70
2018-09-09T07:51:49.053Z,101084.17
2018-09-09T07:54:17.594Z,101084.36
2018-09-09T07:56:46.170Z,101081.50
2018-09-09T07:59:14.770Z,101084.06
2018-09-09T08:01:43.278Z,101089.66
2018-09-09T08:04:11.793Z,101095.34
2018-09-09T08:06:40.302Z,101098.77
2018-09-09T08:09:10.230Z,101092.28
2018-09-09T08:11:39.549Z,101093.98
2018-09-09T08:14:09.462Z,101102.16
2018-09-09T08:16:38.203Z,101105.19
2018-09-09T08:19:07.046Z,101099.20
2018-09-09T08:21:35.818Z,101107.25
2018-09-09T08:24:04.374Z,101097.73
2018-09-09T08:26:32.989Z,101111.21
2018-09-09T08:29:01.460Z,101109.77
2018-09-09T08:31:30.023Z,101115.59
2018-09-09T08:33:58.622Z,101116.33
2018-09-09T08:36:27.287Z,101114.33
2018-09-09T08:38:55.847Z,101116.13
2018-09-09T08:41:24.462Z,101119.55
2018-09-09T08:43:53.024Z,101116.33
2018-09-09T08:46:21.508Z,101120.98
2018-09-09T08:48:50.106Z,101118.78
2018-09-09T08:51:18.686Z,101118.27
2018-09-09T08:53:47.253Z,101119.45
2018-09-09T08:56:15.766Z,101113.91
2018-09-09T08:58:44.340Z,101114.06
2018-09-09T09:01:12.899Z,101122.46
2018-09-09T09:03:41.395Z,101116.06
2018-09-09T09:06:10.071Z,101117.95
2018-09-09T09:08:38.648Z,101121.21
2018-09-09T09:11:07.371Z,101122.27
2018-09-09T09:13:35.954Z,101127.78
2018-09-09T09:16:04.626Z,101131.97
2018-09-09T09:18:34.548Z,101063.20
2018-09-09T09:21:03.096Z,101128.77
2018-09-09T09:23:31.616Z,101128.77
2018-09-09T09:26:00.192Z,101128.77
2018-09-09T09:28:28.690Z,101129.35
2018-09-09T09:30:57.280Z,101135.48
2018-09-09T09:33:25.818Z,101140.70
2018-09-09T09:35:55.152Z,101140.78
2018-09-09T09:38:24.099Z,101139.88
2018-09-09T09:40:53.398Z,101139.33
2018-09-09T09:43:22.063Z,101148.19
2018-09-09T09:45:50.574Z,101150.92
2018-09-09T09:48:19.086Z,101150.59
2018-09-09T09:50:47.648Z,101143.13
2018-09-09T09:53:16.389Z,101147.16
2018-09-09T09:55:45.463Z,101145.95
2018-09-09T09:58:13.999Z,101154.50
2018-09-09T10:00:47.670Z,101147.59
2018-09-09T10:03:16.200Z,101145.81
2018-09-09T10:05:44.670Z,101145.36
2018-09-09T10:08:13.146Z,101144.16
2018-09-09T10:10:41.639Z,101139.57
2018-09-09T10:13:10.121Z,101148.78
2018-09-09T10:15:39.502Z,101157.74
2018-09-09T10:18:08.075Z,101148.56
2018-09-09T10:20:36.594Z,101152.52
2018-09-09T10:23:05.078Z,101158.58
2018-09-09T10:25:33.642Z,101163.28
2018-09-09T10:28:02.234Z,101156.50
2018-09-09T10:30:30.998Z,101156.50
2018-09-09T10:32:59.523Z,101165.70
2018-09-09T10:35:28.066Z,101160.59
2018-09-09T10:37:56.546Z,101170.30
2018-09-09T10:40:25.122Z,101158.95
2018-09-09T10:42:53.607Z,101167.76
2018-09-09T10:45:22.106Z,101166.81
2018-09-09T10:47:50.590Z,101170.96
2018-09-09T10:50:19.306Z,101176.08
2018-09-09T10:52:47.842Z,101171.99
2018-09-09T10:55:16.415Z,101173.50
2018-09-09T10:57:44.998Z,101172.20
2018-09-09T11:00:13.599Z,101176.13
2018-09-09T11:02:42.165Z,101165.67
2018-09-09T11:05:10.650Z,101166.14
2018-09-09T11:07:39.125Z,101162.40
2018-09-09T11:10:07.813Z,101163.43
2018-09-09T11:12:36.356Z,101167.09
2018-09-09T11:15:05.079Z,101166.63
2018-09-09T11:17:33.559Z,101170.05
2018-09-09T11:20:02.140Z,101172.95
2018-09-09T11:22:30.638Z,101162.97
2018-09-09T11:24:59.204Z,101172.37
2018-09-09T11:27:28.042Z,101173.71
2018-09-09T11:29:56.749Z,101179.77
2018-09-09T11:32:25.262Z,101185.94
2018-09-09T11:34:54.290Z,101183.56
2018-09-09T11:37:22.975Z,101185.13
2018-09-09T11:39:51.544Z,101194.47
2018-09-09T11:42:20.103Z,101191.03
2018-09-09T11:44:48.835Z,101180.98
2018-09-09T11:47:17.406Z,101201.16
2018-09-09T11:49:46.057Z,101198.91
2018-09-09T11:52:14.574Z,101192.83
2018-09-09T11:54:43.126Z,101196.34
2018-09-09T11:57:11.909Z,101207.91
2018-09-09T11:59:40.490Z,101207.13
2018-09-09T12:02:09.111Z,101207.07
2018-09-09T12:04:37.546Z,101203.91
2018-09-09T12:07:06.295Z,101203.37
2018-09-09T12:09:34.831Z,101202.92
2018-09-09T12:12:03.324Z,101211.78
2018-09-09T12:14:31.922Z,101210.27
2018-09-09T12:17:00.390Z,101213.56
2018-09-09T12:19:28.992Z,101233.05
2018-09-09T12:21:57.542Z,101234.47
2018-09-09T12:24:26.022Z,101230.36
2018-09-09T12:26:54.635Z,101229.34
2018-09-09T12:29:23.130Z,101228.48
2018-09-09T12:31:51.667Z,101234.04
2018-09-09T12:34:20.242Z,101241.80
2018-09-09T12:36:48.730Z,101230.57
2018-09-09T12:39:17.234Z,101236.81
2018-09-09T12:41:45.712Z,101232.83
2018-09-09T12:44:19.541Z,101234.27
2018-09-09T12:46:53.290Z,101230.64
2018-09-09T12:49:22.013Z,101226.83
2018-09-09T12:51:50.602Z,101234.63
2018-09-09T12:54:19.168Z,101228.75
2018-09-09T12:56:47.639Z,101236.85
2018-09-09T12:59:16.208Z,101231.64
2018-09-09T13:01:44.671Z,101231.53
2018-09-09T13:04:13.271Z,101234.64
2018-09-09T13:06:41.758Z,101234.42
2018-09-09T13:09:10.685Z,101228.84
2018-09-09T13:11:39.284Z,101233.12
2018-09-09T13:14:07.749Z,101237.00
2018-09-09T13:16:36.309Z,101241.64
2018-09-09T13:19:04.910Z,101234.98
2018-09-09T13:21:33.398Z,101233.30
2018-09-09T13:24:01.946Z,101227.61
2018-09-09T13:26:30.470Z,101229.76
2018-09-09T13:28:59.092Z,101232.78
2018-09-09T13:31:27.619Z,101238.23
2018-09-09T13:33:56.314Z,101232.95
2018-09-09T13:36:24.862Z,101234.61
2018-09-09T13:38:53.511Z,101230.25
2018-09-09T13:41:22.114Z,101229.66
2018-09-09T13:43:50.697Z,101231.10
2018-09-09T13:46:19.335Z,101236.92
2018-09-09T13:48:47.828Z,101241.00
2018-09-09T13:51:16.426Z,101239.89
2018-09-09T13:53:44.926Z,101233.55
2018-09-09T13:56:13.426Z,101240.75
2018-09-09T13:58:42.022Z,101235.40
2018-09-09T14:01:10.675Z,101243.65
2018-09-09T14:03:39.267Z,101239.25
2018-09-09T14:06:07.864Z,101242.77
2018-09-09T14:08:36.357Z,101247.73
2018-09-09T14:11:05.007Z,101250.04
2018-09-09T14:13:33.502Z,101248.45
2018-09-09T14:16:02.172Z,101249.91
2018-09-09T14:18:30.774Z,101244.27
2018-09-09T14:20:59.250Z,101249.61
2018-09-09T14:23:27.834Z,101255.19
2018-09-09T14:25:56.422Z,101262.26
2018-09-09T14:28:25.088Z,101265.42
2018-09-09T14:30:54.329Z,101264.31
2018-09-09T14:33:22.886Z,101264.93
2018-09-09T14:35:51.475Z,101264.54
2018-09-09T14:38:19.973Z,101263.59
2018-09-09T14:40:48.514Z,101265.52
2018-09-09T14:43:17.006Z,101264.66
2018-09-09T14:45:45.514Z,101263.30
2018-09-09T14:48:14.159Z,101268.84
2018-09-09T14:50:42.671Z,101266.28
2018-09-09T14:53:11.322Z,101270.30
2018-09-09T14:55:39.804Z,101263.48
2018-09-09T14:58:08.422Z,101254.72
2018-09-09T15:00:37.176Z,101261.03
2018-09-09T15:03:05.802Z,101264.91
2018-09-09T15:05:34.291Z,101261.48
2018-09-09T15:08:02.826Z,101266.31
2018-09-09T15:10:31.318Z,101270.36
2018-09-09T15:12:59.902Z,101269.64
2018-09-09T15:15:28.926Z,101277.77
2018-09-09T15:17:57.511Z,101279.78
2018-09-09T15:20:26.146Z,101286.25
2018-09-09T15:22:54.728Z,101286.94
2018-09-09T15:25:23.317Z,101280.98
2018-09-09T15:27:52.518Z,101282.89
2018-09-09T15:30:21.187Z,101273.00
2018-09-09T15:32:49.774Z,101284.08
2018-09-09T15:35:18.269Z,101280.22
2018-09-09T15:37:46.854Z,101283.65
2018-09-09T15:40:15.439Z,101287.80
2018-09-09T15:42:44.053Z,101284.05
2018-09-09T15:45:12.770Z,101279.93
2018-09-09T15:47:41.369Z,101283.36
2018-09-09T15:50:09.858Z,101278.56
2018-09-09T15:52:38.358Z,101271.88
2018-09-09T15:55:06.953Z,101281.37
2018-09-09T15:57:35.539Z,101275.59
2018-09-09T16:00:04.122Z,101282.41
2018-09-09T16:02:32.816Z,101275.14
2018-09-09T16:05:01.327Z,101275.64
2018-09-09T16:07:29.846Z,101274.41
2018-09-09T16:09:58.334Z,101274.52
2018-09-09T16:12:26.914Z,101273.84
2018-09-09T16:14:55.502Z,101279.52
2018-09-09T16:17:24.166Z,101276.92
2018-09-09T16:19:54.225Z,101281.66
2018-09-09T16:22:23.031Z,101276.92
2018-09-09T16:24:51.598Z,101277.94
2018-09-09T16:27:20.239Z,101275.34
2018-09-09T16:29:48.990Z,101280.55
2018-09-09T16:32:17.770Z,101279.42
2018-09-09T16:34:46.302Z,101279.25
2018-09-09T16:37:14.834Z,101275.46
2018-09-09T16:39:43.419Z,101278.20
2018-09-09T16:42:11.959Z,101274.05
2018-09-09T16:44:40.559Z,101270.84
2018-09-09T16:47:11.302Z,101275.20
2018-09-09T16:49:39.818Z,101280.83
2018-09-09T16:52:08.370Z,101281.30
2018-09-09T16:54:36.905Z,101285.88
2018-09-09T16:57:05.715Z,101288.77
2018-09-09T16:59:34.784Z,101285.38
2018-09-09T17:02:03.367Z,101289.84
2018-09-09T17:04:31.894Z,101285.01
2018-09-09T17:07:00.532Z,101281.36
2018-09-09T17:09:29.034Z,101290.70
2018-09-09T17:11:57.610Z,101292.62
2018-09-09T17:14:26.180Z,101289.22
2018-09-09T17:16:54.864Z,101289.44
2018-09-09T17:19:23.413Z,101293.05
2018-09-09T17:21:52.829Z,101287.34
2018-09-09T17:24:21.574Z,101286.77
2018-09-09T17:26:50.066Z,101284.67
2018-09-09T17:29:18.634Z,101289.55
2018-09-09T17:31:47.385Z,101290.02
2018-09-09T17:34:15.875Z,101288.52
2018-09-09T17:36:44.362Z,101290.80
2018-09-09T17:39:13.055Z,101285.67
2018-09-09T17:41:41.557Z,101281.88
2018-09-09T17:44:10.197Z,101283.81
2018-09-09T17:46:38.822Z,101289.73
2018-09-09T17:49:07.364Z,101294.91
2018-09-09T17:51:35.948Z,101296.35
2018-09-09T17:54:04.546Z,101305.80
2018-09-09T17:56:33.154Z,101304.67
2018-09-09T17:59:01.850Z,101299.51
2018-09-09T18:01:30.380Z,101304.08
2018-09-09T18:03:58.906Z,101302.59
2018-09-09T18:06:27.454Z,101303.53
2018-09-09T18:08:56.034Z,101305.46
2018-09-09T18:11:24.680Z,101307.97
2018-09-09T18:13:53.226Z,101307.20
2018-09-09T18:16:22.022Z,101306.45
2018-09-09T18:18:50.528Z,101307.78
2018-09-09T18:21:19.077Z,101305.31
2018-09-09T18:23:47.708Z,101301.81
2018-09-09T18:26:16.310Z,101309.72
2018-09-09T18:28:44.910Z,101308.75
2018-09-09T18:31:13.565Z,101312.75
2018-09-09T18:33:42.366Z,101315.41
2018-09-09T18:36:10.950Z,101309.72
2018-09-09T18:38:39.648Z,101312.09
2018-09-09T18:41:09.150Z,101309.92
2018-09-09T18:43:38.387Z,101309.05
2018-09-09T18:46:07.482Z,101318.13
2018-09-09T18:48:36.323Z,101314.33
2018-09-09T18:51:04.904Z,101318.53
2018-09-09T18:53:33.487Z,101313.41
2018-09-09T18:56:03.302Z,101309.20
2018-09-09T18:58:31.795Z,101310.02
2018-09-09T19:01:01.050Z,101308.98
2018-09-09T19:03:29.531Z,101318.02
2018-09-09T19:05:58.002Z,101323.02
2018-09-09T19:08:26.546Z,101328.54
2018-09-09T19:10:55.868Z,101333.70
2018-09-09T19:13:24.419Z,101327.04
2018-09-09T19:15:52.914Z,101322.27
2018-09-09T19:18:21.513Z,101328.17
2018-09-09T19:20:50.458Z,101328.77
2018-09-09T19:23:18.958Z,101329.89
2018-09-09T19:25:48.546Z,101328.20
2018-09-09T19:28:17.131Z,101331.52
2018-09-09T19:30:45.750Z,101327.26
2018-09-09T19:33:14.991Z,101329.16
2018-09-09T19:35:44.190Z,101325.75
2018-09-09T19:38:12.706Z,101330.31
2018-09-09T19:40:41.210Z,101327.28
2018-09-09T19:43:09.959Z,101328.61
2018-09-09T19:45:38.541Z,101326.41
2018-09-09T19:48:07.074Z,101318.15
2018-09-09T19:50:35.626Z,101318.15
2018-09-09T19:53:04.431Z,101319.95
2018-09-09T19:55:33.027Z,101319.48
2018-09-09T19:58:01.563Z,101317.19
2018-09-09T20:00:30.060Z,101316.41
2018-09-09T20:02:59.342Z,101321.75
2018-09-09T20:05:28.546Z,101319.85
2018-09-09T20:07:57.054Z,101322.52
2018-09-09T20:10:25.639Z,101319.28
2018-09-09T20:12:54.166Z,101318.05
2018-09-09T20:15:23.022Z,101316.62
2018-09-09T20:17:51.615Z,101320.63
2018-09-09T20:20:21.094Z,101311.66
2018-09-09T20:22:49.647Z,101306.33
2018-09-09T20:25:18.532Z,101307.20
2018-09-09T20:27:47.050Z,101314.13
2018-09-09T20:30:15.614Z,101306.91
2018-09-09T20:32:44.223Z,101301.37
2018-09-09T20:35:12.900Z,101308.21
2018-09-09T20:37:41.546Z,101304.38
2018-09-09T20:40:10.050Z,101308.58
2018-09-09T20:42:38.610Z,101307.05
2018-09-09T20:45:07.512Z,101305.89
2018-09-09T20:47:36.090Z,101306.92
2018-09-09T20:50:04.674Z,101303.19
2018-09-09T20:52:33.170Z,101307.95
2018-09-09T20:55:01.779Z,101305.65
2018-09-09T20:57:30.258Z,101304.69
2018-09-09T20:59:58.938Z,101295.75
2018-09-09T21:02:27.475Z,101294.69
2018-09-09T21:04:55.990Z,101288.89
2018-09-09T21:07:24.542Z,101288.39
2018-09-09T21:09:53.019Z,101284.69
2018-09-09T21:12:22.525Z,101283.72
2018-09-09T21:14:51.018Z,101281.31
2018-09-09T21:17:19.689Z,101272.84
2018-09-09T21:19:48.206Z,101268.75
2018-09-09T21:22:16.687Z,101276.08
2018-09-09T21:24:45.265Z,101268.08
2018-09-09T21:27:13.918Z,101261.57
2018-09-09T21:29:42.487Z,101267.16
2018-09-09T21:32:10.994Z,101267.56
2018-09-09T21:34:39.835Z,101275.36
2018-09-09T21:37:08.352Z,101272.59
2018-09-09T21:39:36.829Z,101268.95
2018-09-09T21:42:05.345Z,101262.65
2018-09-09T21:44:33.826Z,101268.75
2018-09-09T21:47:02.411Z,101263.20
2018-09-09T21:49:31.063Z,101270.23
2018-09-09T21:51:59.534Z,101270.13
2018-09-09T21:54:28.074Z,101270.03
2018-09-09T21:56:56.628Z,101265.45
2018-09-09T21:59:25.206Z,101260.84
2018-09-09T22:01:58.938Z,101262.94
2018-09-09T22:04:28.384Z,101255.30
2018-09-09T22:06:56.914Z,101260.06
2018-09-09T22:09:25.378Z,101253.29
2018-09-09T22:11:53.939Z,101259.49
2018-09-09T22:14:22.563Z,101256.83
2018-09-09T22:16:51.118Z,101251.31
2018-09-09T22:19:19.791Z,101252.04
2018-09-09T22:21:49.644Z,101249.38
2018-09-09T22:24:19.750Z,101256.44
2018-09-09T22:26:48.218Z,101244.43
2018-09-09T22:29:16.798Z,101241.77
2018-09-09T22:31:45.281Z,101245.37
2018-09-09T22:34:16.147Z,101241.36
2018-09-09T22:36:44.807Z,101234.33
2018-09-09T22:39:13.517Z,101177.21
2018-09-09T22:41:42.156Z,101219.29
2018-09-09T22:44:12.718Z,101218.17
2018-09-09T22:46:41.817Z,101225.66
2018-09-09T22:49:10.382Z,101224.89
2018-09-09T22:51:39.290Z,101160.73
2018-09-09T22:54:07.934Z,101218.64
2018-09-09T22:56:36.402Z,101220.19
2018-09-09T22:59:04.922Z,101220.39
2018-09-09T23:01:33.399Z,101217.94
2018-09-09T23:04:01.907Z,101215.48
2018-09-09T23:06:30.547Z,101217.42
2018-09-09T23:08:59.154Z,101213.63
2018-09-09T23:11:27.718Z,101210.56
2018-09-09T23:13:56.242Z,101219.16
2018-09-09T23:16:24.815Z,101218.50
2018-09-09T23:18:53.370Z,101214.61
2018-09-09T23:21:21.964Z,101212.05
2018-09-09T23:23:50.730Z,101208.15
2018-09-09T23:26:19.250Z,101206.05
2018-09-09T23:28:47.827Z,101200.47
2018-09-09T23:31:16.309Z,101202.70
2018-09-09T23:33:44.994Z,101195.75
2018-09-09T23:36:13.735Z,101189.19
2018-09-09T23:38:42.267Z,101181.40
2018-09-09T23:41:10.742Z,101195.22
2018-09-09T23:43:39.450Z,101187.23
2018-09-09T23:46:07.978Z,101189.03
2018-09-09T23:48:36.454Z,101185.03
2018-09-09T23:51:05.086Z,101188.66
2018-09-09T23:53:33.622Z,101186.00
2018-09-09T23:56:02.202Z,101181.70
2018-09-09T23:58:30.727Z,101172.88
